Madison, Nebraska
Current Conditions -  °F | °C
As of 6:56 PM on Saturday 22 Nov 2014 (Local Time) from KOFK Reporting Station
Clear Clear  
Wind Chill: 38°   Ceiling: Unl
Heat Index: 45°   Visibility: 10mi
Dew Point: 39°   Wind: 15mph
Humidity: 80%   Direction: 180°S
Pressure: 29.52"   Gusts: NA
Location:  41.83°N, 97.46°W
Report Text: KOFK 230056Z AUTO 18013KT 10SM CLR 07/04 A2952 RMK AO2 SLP006 T00720039
Loading
Personal Weather Stations






























Interactive Weather Map New forecast layout! Learn more

10-Day Weather Forecast

Advertisements
Track Severe Weather on mobile